Latest Weather Observations for Tidbinbilla

IDN60801

Issued at 1:42 pm EDT Sunday 24 March 2019 (issued every 10 minutes, with the page automatically refreshed every 10 minutes)

About weather observations | Map of weather stations | Latest weather observations for NSW | Other Formats
Station Details ID: 250069 Name: PORTABLE RFSACT01 Lat: -35.46 Lon: 148.93 Height: 834.0 m
Data from the previous 72 hours. | See also: Recent months for locations in New South Wales
Date/Time
EDT
Temp
°C
App
Temp
°C
Dew
Point
°C
Rel
Hum
%
Delta-T
°C
Wind Press
QNH
hPa
Press
MSL
hPa
Rain since
9am
mm
Dir  Spd
km/h
Gust
km/h
Spd
kts
Gust
kts
24/01:10pm 23.5 20.0 12.1 48 6.7 SW 22 30 12 16 - - 0.0
24/01:00pm 23.1 19.0 12.7 52 6.2 SW 26 35 14 19 - - 0.0
24/12:50pm 23.3 20.4 12.4 50 6.5 SW 19 33 10 18 - - 0.0
24/12:40pm 22.6 19.8 12.5 53 6.0 WSW 19 26 10 14 - - 0.0
24/12:30pm 22.4 18.4 12.9 55 5.6 SW 26 35 14 19 - - 0.0
24/12:20pm 21.9 17.3 12.3 54 5.6 SW 28 37 15 20 - - 0.0
24/12:10pm 21.4 15.5 12.3 56 5.3 SW 35 46 19 25 - - 0.0
24/12:00pm 21.2 15.7 12.3 57 5.2 SW 33 44 18 24 - - 0.0
24/11:50am 21.5 16.9 12.4 56 5.3 SW 28 35 15 19 - - 0.0
24/11:40am 21.0 18.0 11.9 56 5.3 WSW 19 32 10 17 - - 0.0
24/11:30am 20.2 15.8 11.6 57 5.0 SW 26 32 14 17 - - 0.0
24/11:20am 20.4 17.0 12.4 60 4.7 W 22 33 12 18 - - 0.0
24/11:10am 20.1 17.3 11.3 57 5.0 W 17 32 9 17 - - 0.0
24/11:00am 19.7 14.5 11.6 59 4.7 WSW 30 43 16 23 - - 0.0
24/10:50am 19.6 16.2 12.4 63 4.2 WSW 22 32 12 17 - - 0.0
24/10:40am 18.5 12.4 12.9 70 3.3 SW 37 46 20 25 - - 0.0
24/10:30am 18.1 12.2 12.3 69 3.3 SW 35 43 19 23 - - 0.0
24/10:20am 18.1 13.6 12.5 70 3.2 SW 28 39 15 21 - - 0.0
24/10:10am 18.1 15.3 12.5 70 3.2 SW 19 24 10 13 - - 0.0
24/10:00am 17.8 14.9 12.3 70 3.2 SW 19 32 10 17 - - 0.2
24/09:50am 17.8 16.1 12.4 70 3.1 WSW 13 20 7 11 - - 0.2
24/09:40am 17.6 16.0 12.9 74 2.7 W 13 20 7 11 - - 0.2
24/09:30am 17.4 15.7 12.3 72 2.9 WSW 13 17 7 9 - - 0.2
24/09:20am 17.4 15.1 11.8 69 3.2 WSW 15 19 8 10 - - 0.2
24/09:10am 18.0 15.0 11.9 67 3.5 SW 19 28 10 15 - - 0.0
24/09:00am 18.7 15.7 10.6 59 4.5 SW 17 26 9 14 - - 0.0
24/08:50am 18.7 16.2 9.8 56 4.9 SSW 13 24 7 13 - - 0.0
24/08:40am 18.8 16.7 9.8 56 5.0 SSW 11 15 6 8 - - 0.0
24/08:30am 18.9 16.2 9.1 53 5.4 SSW 13 15 7 8 - - 0.0
24/08:20am 19.0 15.2 8.9 52 5.5 SSW 19 22 10 12 - - 0.0
24/08:10am 19.1 15.3 9.2 52 5.4 SSW 19 20 10 11 - - 0.0
24/08:00am 19.0 15.1 9.3 53 5.3 SSW 20 26 11 14 - - 0.0
24/07:50am 18.8 16.7 9.8 56 5.0 SSW 11 19 6 10 - - 0.0
24/07:40am 18.5 17.1 9.7 56 4.9 SSW 7 11 4 6 - - 0.0
24/07:30am 18.1 16.6 9.2 56 4.9 S 7 9 4 5 - - 0.0
24/07:20am 17.3 16.2 10.1 62 4.0 S 6 6 3 3 - - 0.0
24/07:10am 18.0 18.0 12.3 69 3.3 SE 4 6 2 3 - - 0.0
24/07:00am 18.9 18.4 12.0 64 4.0 WSW 6 11 3 6 - - 0.0
24/06:50am 18.5 16.4 8.4 51 5.4 S 9 11 5 6 - - 0.0
24/06:40am 17.7 16.8 10.7 63 3.9 S 6 9 3 5 - - 0.0
24/06:30am 16.4 15.7 11.9 75 2.6 SSE 7 11 4 6 - - 0.0
24/06:20am 16.2 15.8 13.1 82 1.8 S 7 9 4 5 - - 0.0
24/06:10am 17.4 17.7 13.3 77 2.4 WSW 4 7 2 4 - - 0.0
24/06:00am 18.0 17.9 12.0 68 3.4 E 4 6 2 3 - - 0.0
24/05:50am 18.2 18.4 11.7 66 3.7 ENE 2 6 1 3 - - 0.0
24/05:40am 18.2 18.0 11.9 66 3.6 SSE 4 7 2 4 - - 0.0
24/05:30am 19.2 19.1 12.0 63 4.2 NNW 4 6 2 3 - - 0.0
24/05:20am 19.3 18.5 11.2 59 4.6 SSW 6 9 3 5 - - 0.0
24/05:10am 18.8 17.9 11.3 61 4.3 SSW 7 9 4 5 - - 0.0
24/05:00am 18.5 17.8 11.5 63 4.0 S 6 7 3 4 - - 0.0
24/04:50am 18.5 18.0 11.9 65 3.8 SSW 6 7 3 4 - - 0.0
24/04:40am 19.1 18.2 11.3 60 4.4 S 7 7 4 4 - - 0.0
24/04:30am 18.9 19.0 11.4 61 4.3 S 2 7 1 4 - - 0.0
24/04:20am 18.8 18.4 11.1 61 4.4 SSW 4 6 2 3 - - 0.0
24/04:10am 18.4 17.5 11.4 63 4.0 S 7 9 4 5 - - 0.0
24/04:00am 18.1 17.9 11.9 67 3.6 SSW 4 4 2 2 - - 0.0
24/03:50am 18.0 17.8 11.8 67 3.5 S 4 6 2 3 - - 0.0
24/03:40am 17.8 17.7 12.1 69 3.3 SSW 4 6 2 3 - - 0.0
24/03:30am 17.9 18.2 12.1 69 3.3 NE 2 6 1 3 - - 0.0
24/03:20am 17.5 18.2 12.1 70 3.1 CALM 0 4 0 2 - - 0.0
24/03:10am 17.4 18.0 12.0 70 3.1 CALM 0 2 0 1 - - 0.0
24/03:00am 17.3 17.3 12.4 73 2.8 SSW 4 6 2 3 - - 0.0
24/02:50am 17.5 17.5 12.5 72 2.9 SW 4 6 2 3 - - 0.0
24/02:40am 17.4 17.7 12.3 72 2.9 S 2 4 1 2 - - 0.0
24/02:30am 17.6 18.4 12.4 71 3.0 CALM 0 4 0 2 - - 0.0
24/02:20am 17.7 18.4 12.3 70 3.1 CALM 0 2 0 1 - - 0.0
24/02:10am 17.8 18.5 12.1 69 3.3 CALM 0 0 0 0 - - 0.0
24/02:00am 17.9 18.2 12.2 69 3.3 NE 2 4 1 2 - - 0.0
24/01:50am 17.9 17.9 12.3 70 3.2 S 4 7 2 4 - - 0.0
24/01:40am 18.0 18.3 12.2 69 3.3 SE 2 6 1 3 - - 0.0
24/01:30am 18.2 18.6 12.4 69 3.4 S 2 4 1 2 - - 0.0
24/01:20am 18.6 18.6 12.4 67 3.6 SW 4 6 2 3 - - 0.0
24/01:10am 19.4 19.6 11.9 62 4.3 SSE 2 4 1 2 - - 0.0
24/01:00am 19.5 18.7 11.6 60 4.5 ENE 7 9 4 5 - - 0.0
24/12:50am 19.4 18.3 11.9 62 4.3 NE 9 11 5 6 - - 0.0
24/12:40am 19.4 18.2 11.5 60 4.5 ENE 9 11 5 6 - - 0.0
24/12:30am 19.3 18.9 12.4 64 4.0 ENE 6 9 3 5 - - 0.0
24/12:20am 19.8 19.0 11.8 60 4.6 ENE 7 11 4 6 - - 0.0
24/12:10am 19.9 18.7 11.6 58 4.8 ENE 9 11 5 6 - - 0.0
24/12:00am 19.6 18.7 11.2 58 4.8 E 7 9 4 5 - - 0.0
 
Date/Time
EDT
Temp
°C
App
Temp
°C
Dew
Point
°C
Rel
Hum
%
Delta-T
°C
Wind Press
QNH
hPa
Press
MSL
hPa
Rain since
9am
mm
Dir  Spd
km/h
Gust
km/h
Spd
kts
Gust
kts
23/11:50pm 19.6 19.7 11.6 60 4.6 NW 2 6 1 3 - - 0.0
23/11:40pm 19.9 19.6 11.4 58 4.9 WNW 4 6 2 3 - - 0.0
23/11:30pm 19.9 19.9 11.2 57 5.0 S 2 7 1 4 - - 0.0
23/11:20pm 20.0 19.1 11.5 58 4.9 SSW 7 11 4 6 - - 0.0
23/11:10pm 20.3 19.0 11.4 56 5.1 SSW 9 13 5 7 - - 0.0
23/11:00pm 20.4 18.7 11.2 55 5.3 SSW 11 13 6 7 - - 0.0
23/10:50pm 20.2 18.4 11.0 55 5.2 S 11 13 6 7 - - 0.0
23/10:40pm 20.0 18.3 11.1 56 5.1 S 11 13 6 7 - - 0.0
23/10:30pm 19.7 18.4 11.2 58 4.8 S 9 11 5 6 - - 0.0
23/10:20pm 19.8 19.1 11.5 58 4.8 SSW 6 9 3 5 - - 0.0
23/10:10pm 19.9 19.2 11.3 57 4.9 SSW 6 7 3 4 - - 0.0
23/10:00pm 19.9 18.6 11.3 57 4.9 SSW 9 13 5 7 - - 0.0
23/09:50pm 19.9 17.9 11.5 58 4.8 SSW 13 15 7 8 - - 0.0
23/09:40pm 19.9 17.9 11.5 58 4.8 SSW 13 15 7 8 - - 0.0
23/09:30pm 19.8 18.2 11.4 58 4.8 SSW 11 15 6 8 - - 0.0
23/09:20pm 19.8 18.5 11.4 58 4.8 SSW 9 13 5 7 - - 0.0
23/09:10pm 19.9 19.3 11.7 59 4.7 SSW 6 7 3 4 - - 0.0
23/09:00pm 20.0 19.7 11.5 58 4.9 SSW 4 9 2 5 - - 0.0
23/08:50pm 20.0 19.1 11.4 57 4.9 S 7 11 4 6 - - 0.0
23/08:40pm 19.7 18.9 11.7 60 4.6 S 7 11 4 6 - - 0.0
23/08:30pm 19.3 18.8 12.0 62 4.2 S 6 7 3 4 - - 0.0
23/08:20pm 19.1 19.4 12.3 64 3.9 SSW 2 4 1 2 - - 0.0
23/08:10pm 19.1 18.6 12.2 64 4.0 SSW 6 7 3 4 - - 0.0
23/08:00pm 19.1 19.5 12.4 65 3.9 S 2 6 1 3 - - 0.0
23/07:50pm 19.2 19.7 12.8 66 3.7 SSW 2 4 1 2 - - 0.0
23/07:40pm 19.4 19.9 12.8 65 3.9 WNW 2 6 1 3 - - 0.0
23/07:30pm 19.3 19.7 12.5 64 4.0 NW 2 2 1 1 - - 0.0
23/07:20pm 19.3 19.8 12.8 66 3.8 W 2 4 1 2 - - 0.0
23/07:10pm 19.4 19.1 12.6 64 4.0 SSW 6 7 3 4 - - 0.0
23/07:00pm 19.5 19.0 12.6 64 4.0 SW 7 9 4 5 - - 0.0
23/06:50pm 19.5 19.2 13.2 67 3.7 SW 7 9 4 5 - - 0.0
23/06:40pm 19.7 19.1 13.5 67 3.7 SW 9 13 5 7 - - 0.0
23/06:30pm 19.6 19.5 13.9 69 3.4 SW 7 11 4 6 - - 0.0
23/06:20pm 19.6 20.3 14.4 72 3.1 SW 4 6 2 3 - - 0.0
23/06:10pm 19.7 19.9 14.1 70 3.4 NW 6 7 3 4 - - 0.0
23/06:00pm 19.7 19.6 13.2 66 3.8 WNW 6 15 3 8 - - 0.0
23/05:50pm 20.0 19.5 13.7 67 3.8 N 9 11 5 6 - - 0.0
23/05:40pm 20.1 19.7 14.2 69 3.6 NNE 9 11 5 6 - - 0.0
23/05:30pm 20.1 19.2 13.7 66 3.8 NNE 11 15 6 8 - - 0.0
23/05:20pm 20.2 19.4 14.0 67 3.7 N 11 15 6 8 - - 0.0
23/05:00pm 20.5 20.4 14.0 66 3.9 N 7 9 4 5 - - 0.0
23/04:50pm 21.0 20.3 14.2 65 4.1 NNE 11 15 6 8 - - 0.0
23/04:40pm 21.4 20.8 13.4 60 4.8 NE 9 11 5 6 - - 0.0
23/04:30pm 21.4 21.2 13.5 60 4.7 NNE 7 13 4 7 - - 0.0
23/04:20pm 21.5 20.3 14.1 62 4.5 NE 13 15 7 8 - - 0.0
23/04:10pm 21.8 20.9 13.6 59 4.9 NNE 11 11 6 6 - - 0.0
23/04:00pm 22.0 21.6 14.2 61 4.7 NE 9 13 5 7 - - 0.0
23/03:50pm 22.6 22.3 12.6 53 5.9 NNE 6 7 3 4 - - 0.0
23/03:40pm 22.8 22.7 13.2 54 5.7 ENE 6 7 3 4 - - 0.0
23/03:30pm 23.3 23.4 12.8 51 6.3 NNE 4 7 2 4 - - 0.0
23/03:20pm 24.1 24.3 13.0 50 6.7 N 4 11 2 6 - - 0.0
23/03:10pm 23.5 23.2 11.6 47 7.0 S 4 7 2 4 - - 0.0
23/03:00pm 22.3 21.3 11.0 48 6.5 SSW 7 13 4 7 - - 0.0
23/02:50pm 21.9 19.9 11.4 51 6.1 SW 13 17 7 9 - - 0.0
23/02:40pm 22.0 19.4 11.9 52 5.9 SW 17 24 9 13 - - 0.0
23/02:30pm 21.7 18.4 10.9 50 6.2 WSW 19 24 10 13 - - 0.0
23/02:20pm 21.2 17.3 10.9 51 5.9 SW 22 30 12 16 - - 0.0
23/02:00pm 20.9 20.8 13.9 64 4.2 W 7 9 4 5 - - 0.0
23/01:50pm 20.8 21.0 14.1 65 4.0 W 6 9 3 5 - - 0.0
23/01:40pm 21.1 21.1 13.6 62 4.5 NW 6 9 3 5 - - 0.0
23/01:30pm 21.2 21.9 13.5 61 4.6 W 2 6 1 3 - - 0.0
23/01:20pm 21.0 20.9 12.2 57 5.1 WNW 4 9 2 5 - - 0.0
23/01:10pm 21.2 21.1 13.3 60 4.7 W 6 9 3 5 - - 0.0
23/01:00pm 21.7 22.1 13.8 60 4.8 NW 4 9 2 5 - - 0.0
23/12:50pm 22.0 22.6 14.3 61 4.7 NNW 4 7 2 4 - - 0.0
23/12:40pm 21.5 21.8 12.3 55 5.4 SW 2 6 1 3 - - 0.0
23/12:30pm 20.2 20.3 13.8 66 3.8 NNE 6 7 3 4 - - 0.0
23/12:20pm 19.5 19.6 13.9 70 3.3 NNE 6 7 3 4 - - 0.0
23/12:10pm 18.7 18.6 14.0 74 2.8 NNE 7 9 4 5 - - 0.0
23/12:00pm 18.4 18.2 13.7 74 2.8 NNE 7 9 4 5 - - 0.0
23/11:50am 18.4 18.7 14.4 77 2.4 N 6 7 3 4 - - 0.0
23/11:40am 18.7 19.2 14.0 74 2.8 NNW 4 6 2 3 - - 0.0
23/11:30am 18.9 19.3 13.7 72 3.1 NNW 4 6 2 3 - - 0.0
23/11:20am 19.0 19.2 14.1 73 2.9 NNW 6 7 3 4 - - 0.0
23/11:10am 19.2 19.5 14.6 74 2.8 N 6 7 3 4 - - 0.0
23/11:00am 19.5 19.7 14.6 73 3.0 NNW 7 9 4 5 - - 0.0
23/10:50am 19.1 18.9 13.7 71 3.2 N 7 9 4 5 - - 0.0
23/10:40am 19.0 18.5 13.9 72 3.0 NNE 9 11 5 6 - - 0.0
23/10:30am 19.6 19.4 14.6 73 3.0 N 9 11 5 6 - - 0.0
23/10:20am 19.5 19.5 14.2 71 3.2 N 7 11 4 6 - - 0.0
23/10:10am 18.8 19.2 13.7 72 3.0 N 4 6 2 3 - - 0.0
23/10:00am 18.3 19.0 13.4 73 2.9 WNW 2 6 1 3 - - 0.6
23/09:50am 18.1 18.4 13.5 74 2.7 NNW 4 4 2 2 - - 0.6
23/09:40am 17.9 18.7 13.6 76 2.5 NNW 2 4 1 2 - - 0.6
23/09:30am 17.2 17.6 12.6 74 2.7 NNW 2 4 1 2 - - 0.6
23/09:20am 16.4 17.1 13.4 82 1.8 NNW 2 4 1 2 - - 0.6
23/09:10am 15.8 16.2 12.6 81 1.8 NE 2 4 1 2 - - 0.6
23/09:00am 15.3 15.4 12.8 85 1.4 NE 4 6 2 3 - - 0.6
23/08:50am 14.9 14.6 12.8 87 1.2 NE 6 7 3 4 - - 0.6
23/08:40am 14.9 14.7 12.9 88 1.1 NNE 6 7 3 4 - - 0.6
23/08:30am 15.1 14.7 13.0 87 1.2 NNE 7 7 4 4 - - 0.6
23/08:20am 15.3 16.3 13.3 88 1.2 CALM 0 4 0 2 - - 0.6
23/08:10am 14.8 15.6 12.5 86 1.3 CALM 0 0 0 0 - - 0.6
23/08:00am 14.5 15.2 12.2 86 1.3 CALM 0 0 0 0 - - 0.6
23/07:50am 14.3 15.0 12.1 87 1.2 CALM 0 0 0 0 - - 0.6
23/07:40am 14.2 14.9 12.1 87 1.2 CALM 0 2 0 1 - - 0.6
23/07:30am 14.1 14.7 12.0 87 1.2 CALM 0 0 0 0 - - 0.6
23/07:20am 14.0 14.6 11.9 87 1.2 CALM 0 0 0 0 - - 0.6
23/07:10am 13.8 14.4 12.0 89 1.0 CALM 0 2 0 1 - - 0.6
23/07:00am 13.7 14.3 12.0 89 1.0 CALM 0 0 0 0 - - 0.6
23/06:50am 13.7 14.3 12.0 89 1.0 CALM 0 2 0 1 - - 0.6
23/06:40am 13.9 14.5 12.0 88 1.1 CALM 0 2 0 1 - - 0.6
23/06:30am 13.9 14.5 11.9 88 1.1 CALM 0 0 0 0 - - 0.6
23/06:20am 13.8 14.0 11.9 88 1.1 S 2 2 1 1 - - 0.6
23/06:10am 13.9 14.5 11.9 88 1.1 CALM 0 0 0 0 - - 0.6
23/06:00am 13.8 14.0 11.8 88 1.1 SSE 2 4 1 2 - - 0.6
23/05:50am 13.8 14.0 11.8 88 1.1 SSE 2 6 1 3 - - 0.6
23/05:40am 14.0 14.2 12.0 88 1.1 SSW 2 6 1 3 - - 0.6
23/05:30am 14.4 14.6 11.8 84 1.5 ENE 2 4 1 2 - - 0.6
23/05:20am 14.2 14.0 11.7 85 1.4 ENE 4 6 2 3 - - 0.6
23/05:10am 14.0 13.8 11.7 86 1.3 SSE 4 6 2 3 - - 0.6
23/05:00am 14.1 14.3 11.7 85 1.3 SSE 2 4 1 2 - - 0.6
23/04:50am 14.1 14.7 11.8 86 1.3 CALM 0 2 0 1 - - 0.6
23/04:40am 14.1 14.3 12.0 87 1.2 S 2 4 1 2 - - 0.6
23/04:30am 13.9 14.2 12.1 89 1.0 SSE 2 4 1 2 - - 0.6
23/04:20am 13.8 13.7 12.2 90 0.9 S 4 6 2 3 - - 0.6
23/04:00am 13.8 14.1 12.2 90 0.9 SW 2 4 1 2 - - 0.6
23/03:50am 14.0 14.3 12.2 89 1.0 E 2 4 1 2 - - 0.6
23/03:40am 14.0 14.4 12.4 90 0.9 E 2 6 1 3 - - 0.6
23/03:30am 13.9 14.3 12.4 91 0.8 ENE 2 2 1 1 - - 0.6
23/03:20am 14.0 14.4 12.5 91 0.9 N 2 4 1 2 - - 0.6
23/03:10am 14.5 14.5 12.4 87 1.2 ESE 4 6 2 3 - - 0.6
23/03:00am 14.6 14.3 12.6 88 1.1 ESE 6 7 3 4 - - 0.6
23/02:50am 14.5 14.2 12.6 88 1.1 SSE 6 7 3 4 - - 0.6
23/02:40am 14.3 13.7 12.3 88 1.1 SSE 7 9 4 5 - - 0.6
23/02:30am 14.0 13.4 12.3 89 1.0 S 7 9 4 5 - - 0.6
23/02:20am 14.1 14.1 12.4 89 1.0 SSW 4 6 2 3 - - 0.6
23/02:10am 14.0 14.0 12.5 91 0.9 S 4 4 2 2 - - 0.6
23/02:00am 14.0 14.0 12.5 91 0.9 SSW 4 6 2 3 - - 0.6
23/01:50am 14.2 15.0 12.6 90 0.9 CALM 0 2 0 1 - - 0.6
23/01:40am 14.3 15.2 12.8 91 0.9 CALM 0 2 0 1 - - 0.6
23/01:30am 14.5 15.0 12.9 90 0.9 NE 2 4 1 2 - - 0.6
23/01:20am 14.8 14.5 12.6 87 1.3 NE 6 7 3 4 - - 0.6
23/01:10am 14.7 13.8 12.5 87 1.3 NE 9 11 5 6 - - 0.6
23/01:00am 14.4 14.1 12.7 89 1.0 NNE 6 7 3 4 - - 0.6
23/12:50am 14.8 14.9 12.8 88 1.1 N 4 6 2 3 - - 0.6
23/12:40am 14.9 15.7 12.7 87 1.3 CALM 0 0 0 0 - - 0.6
23/12:30am 15.0 15.9 12.8 87 1.3 CALM 0 0 0 0 - - 0.6
23/12:20am 15.2 16.1 12.8 85 1.4 CALM 0 4 0 2 - - 0.6
23/12:10am 15.1 15.3 13.1 88 1.2 S 4 4 2 2 - - 0.6
23/12:00am 15.1 15.2 12.8 86 1.3 SSW 4 4 2 2 - - 0.6
 
Date/Time
EDT
Temp
°C
App
Temp
°C
Dew
Point
°C
Rel
Hum
%
Delta-T
°C
Wind Press
QNH
hPa
Press
MSL
hPa
Rain since
9am
mm
Dir  Spd
km/h
Gust
km/h
Spd
kts
Gust
kts
22/11:50pm 15.2 15.6 12.5 84 1.5 SSW 2 4 1 2 - - 0.6
22/11:40pm 15.2 15.7 12.7 85 1.4 SSW 2 4 1 2 - - 0.6
22/11:30pm 15.3 15.7 12.6 84 1.5 SSW 2 2 1 1 - - 0.6
22/11:20pm 15.4 15.9 12.7 84 1.5 SSW 2 4 1 2 - - 0.6
22/11:10pm 15.4 16.2 12.5 83 1.7 CALM 0 2 0 1 - - 0.6
22/11:00pm 15.3 15.4 12.7 84 1.5 SSW 4 6 2 3 - - 0.6
22/10:50pm 15.3 15.5 13.1 87 1.3 SSW 4 4 2 2 - - 0.6
22/10:40pm 15.4 16.0 13.2 87 1.3 SW 2 4 1 2 - - 0.6
22/10:30pm 15.5 16.5 13.1 85 1.4 CALM 0 0 0 0 - - 0.6
22/10:20pm 15.5 16.2 13.3 87 1.3 SW 2 4 1 2 - - 0.6
22/10:10pm 15.6 15.7 12.8 83 1.6 SSW 4 4 2 2 - - 0.6
22/10:00pm 16.0 16.3 13.3 84 1.6 ENE 4 6 2 3 - - 0.6
22/09:50pm 16.0 15.8 13.1 83 1.7 ENE 6 7 3 4 - - 0.6
22/09:40pm 16.2 16.3 12.7 80 2.0 NE 4 7 2 4 - - 0.6
22/09:30pm 16.5 15.6 12.7 78 2.2 NE 9 9 5 5 - - 0.6
22/09:20pm 16.4 15.3 12.0 75 2.5 ENE 9 11 5 6 - - 0.6
22/09:10pm 16.0 15.2 11.7 75 2.4 NE 7 9 4 5 - - 0.6
22/09:00pm 16.6 17.1 11.6 72 2.8 CALM 0 4 0 2 - - 0.6
22/08:50pm 16.7 16.8 11.5 71 2.9 NE 2 4 1 2 - - 0.6
22/08:40pm 16.8 16.8 11.1 69 3.2 SSE 2 6 1 3 - - 0.6
22/08:30pm 16.6 16.6 12.3 76 2.5 S 4 6 2 3 - - 0.6
22/08:20pm 16.4 16.3 12.2 76 2.4 S 4 7 2 4 - - 0.6
22/08:10pm 16.4 16.9 12.9 80 2.0 S 2 4 1 2 - - 0.6
22/08:00pm 16.7 16.4 12.8 78 2.3 SSW 6 7 3 4 - - 0.6
22/07:50pm 16.7 16.2 12.5 76 2.4 S 7 7 4 4 - - 0.6
22/07:40pm 16.6 16.3 13.2 80 2.0 S 7 9 4 5 - - 0.6
22/07:30pm 16.7 16.1 13.5 81 1.9 S 9 11 5 6 - - 0.6
22/07:20pm 17.1 16.9 13.6 80 2.1 S 7 7 4 4 - - 0.6
22/07:10pm 17.5 17.6 13.8 79 2.2 SSW 6 6 3 3 - - 0.6
22/07:00pm 18.1 18.2 14.0 77 2.4 SW 6 6 3 3 - - 0.6
22/06:50pm 18.8 19.7 14.1 74 2.8 N 2 7 1 4 - - 0.6
22/06:40pm 19.1 19.0 13.3 69 3.4 NNE 6 7 3 4 - - 0.6
22/06:30pm 18.9 18.6 13.2 69 3.4 N 7 7 4 4 - - 0.6
22/06:20pm 18.8 18.5 13.4 71 3.2 NNE 7 7 4 4 - - 0.6
22/06:10pm 18.9 18.9 13.5 71 3.2 NNE 6 9 3 5 - - 0.6
22/06:00pm 18.8 18.6 13.5 71 3.1 NNE 7 11 4 6 - - 0.6
22/05:50pm 18.6 18.1 13.9 74 2.8 NNE 9 9 5 5 - - 0.6
22/05:40pm 18.8 18.4 14.1 74 2.8 NNE 9 11 5 6 - - 0.6
22/05:30pm 19.1 18.8 13.3 69 3.4 NNE 7 9 4 5 - - 0.6
22/05:20pm 19.4 18.9 12.8 65 3.9 NNE 7 9 4 5 - - 0.6
22/05:10pm 19.8 19.5 13.2 65 3.9 NE 7 9 4 5 - - 0.6
22/05:00pm 20.3 20.3 13.5 65 4.0 NNW 6 7 3 4 - - 0.6
22/04:50pm 19.3 19.1 12.9 66 3.8 NNE 6 9 3 5 - - 0.6
22/04:40pm 19.3 19.0 13.4 68 3.5 NNW 7 11 4 6 - - 0.6
22/04:30pm 19.2 19.3 14.0 72 3.1 NNW 6 9 3 5 - - 0.6
22/04:20pm 19.4 19.4 12.5 64 4.0 N 4 6 2 3 - - 0.6
22/04:10pm 19.7 19.6 13.4 67 3.7 NNW 6 7 3 4 - - 0.6
22/04:00pm 19.7 19.6 13.3 66 3.8 NW 6 7 3 4 - - 0.6
22/03:50pm 19.8 20.1 13.3 66 3.8 NW 4 6 2 3 - - 0.6
22/03:40pm 19.6 19.2 12.4 63 4.2 WNW 6 7 3 4 - - 0.6
22/03:30pm 19.8 19.8 13.5 67 3.7 WSW 6 9 3 5 - - 0.6
22/03:20pm 19.4 18.9 12.5 64 4.0 SW 7 11 4 6 - - 0.6
22/03:10pm 18.8 18.9 12.8 68 3.5 S 4 9 2 5 - - 0.6
22/03:00pm 18.0 17.6 12.4 70 3.2 SW 6 9 3 5 - - 0.6
22/02:50pm 17.5 16.5 12.3 71 3.0 SSW 9 13 5 7 - - 0.6
22/02:40pm 17.3 16.8 12.2 72 2.9 S 6 7 3 4 - - 0.6
22/02:30pm 17.0 15.6 13.3 79 2.2 S 13 22 7 12 - - 0.6
22/02:20pm 17.0 15.7 12.6 75 2.5 SSW 11 15 6 8 - - 0.6
22/02:10pm 16.8 16.8 13.5 81 1.9 SSW 6 11 3 6 - - 0.6
22/02:00pm 16.2 15.3 13.7 85 1.5 SSW 11 15 6 8 - - 0.6
22/01:50pm 15.9 14.7 13.9 88 1.2 SSW 13 17 7 9 - - 0.6
22/01:40pm 16.0 14.6 13.3 84 1.6 SSW 13 17 7 9 - - 0.4
22/01:30pm 15.9 14.6 13.6 86 1.3 SSW 13 15 7 8 - - 0.4
22/01:20pm 16.0 13.4 13.2 83 1.6 SSW 19 20 10 11 - - 0.4
22/01:10pm 15.9 13.7 13.4 85 1.5 SSW 17 20 9 11 - - 0.2
22/01:00pm 16.5 14.6 14.2 86 1.4 SSW 17 20 9 11 - - 0.2
22/12:50pm 17.3 16.6 14.3 82 1.8 S 11 19 6 10 - - 0.0
22/12:40pm 17.9 19.2 15.2 84 1.6 SSW 2 4 1 2 - - 0.0
22/12:30pm 17.9 19.1 14.9 82 1.8 W 2 4 1 2 - - 0.0
22/12:20pm 18.2 18.9 14.5 79 2.2 SW 4 4 2 2 - - 0.0
22/12:10pm 18.3 19.6 14.2 77 2.4 CALM 0 0 0 0 - - 0.0
22/12:00pm 18.4 18.6 14.3 77 2.5 N 6 9 3 5 - - 0.0
22/11:50am 18.8 19.4 14.2 74 2.8 N 4 7 2 4 - - 0.0
22/11:40am 18.8 19.0 13.1 69 3.3 NNE 4 7 2 4 - - 0.0
22/11:30am 19.0 19.4 13.8 72 3.1 N 4 9 2 5 - - 0.0
22/11:20am 18.8 19.7 14.1 74 2.8 ESE 2 4 1 2 - - 0.0
22/11:10am 18.5 19.4 14.1 75 2.6 SSW 2 4 1 2 - - 0.0
22/11:00am 18.4 18.7 14.5 78 2.3 W 6 11 3 6 - - 0.0
22/10:50am 18.8 19.2 14.7 77 2.5 NNW 6 9 3 5 - - 0.0
22/10:40am 18.5 18.8 14.5 77 2.4 NNW 6 7 3 4 - - 0.0
22/10:30am 18.5 19.3 14.8 79 2.2 NNW 4 6 2 3 - - 0.0
22/10:20am 18.4 18.9 14.0 75 2.6 NW 4 6 2 3 - - 0.0
22/10:10am 18.8 19.5 14.6 76 2.5 W 4 6 2 3 - - 0.0
22/10:00am 19.3 20.4 14.6 74 2.8 NW 2 7 1 4 - - 3.8
22/09:50am 18.8 19.5 14.5 76 2.6 N 4 6 2 3 - - 3.8
22/09:40am 17.8 19.3 14.7 82 1.9 CALM 0 4 0 2 - - 3.8
22/09:30am 17.3 18.5 13.9 80 2.0 CALM 0 0 0 0 - - 3.8
22/09:20am 17.0 18.1 14.5 85 1.5 SSW 2 6 1 3 - - 3.8
22/09:10am 17.0 17.8 14.8 87 1.3 SSW 4 4 2 2 - - 3.8
22/09:00am 16.7 17.5 14.9 89 1.1 SW 4 4 2 2 - - 3.8
22/08:50am 16.6 17.7 14.7 88 1.1 SW 2 4 1 2 - - 3.8
22/08:40am 16.2 17.6 14.3 88 1.1 CALM 0 2 0 1 - - 3.8
22/08:30am 15.6 17.1 14.6 94 0.6 CALM 0 2 0 1 - - 3.8
22/08:20am 15.5 17.0 14.6 94 0.5 CALM 0 0 0 0 - - 3.8
22/07:50am 15.3 16.7 14.5 95 0.5 CALM 0 2 0 1 - - 3.8
22/07:40am 15.3 16.7 14.5 95 0.5 CALM 0 0 0 0 - - 3.8
22/07:30am 15.4 16.8 14.4 94 0.6 CALM 0 2 0 1 - - 3.8
22/07:20am 15.4 16.2 13.8 90 0.9 E 2 6 1 3 - - 3.8
22/07:10am 15.4 15.8 13.8 90 0.9 ENE 4 6 2 3 - - 3.8
22/07:00am 15.4 15.9 14.0 91 0.8 ENE 4 7 2 4 - - 3.8
22/06:50am 15.4 15.9 14.1 92 0.8 ENE 4 6 2 3 - - 3.8
22/06:40am 15.4 15.6 14.2 92 0.7 ENE 6 7 3 4 - - 3.8
22/06:30am 15.4 15.7 14.6 95 0.5 ENE 6 7 3 4 - - 3.8
22/06:20am 15.5 15.7 14.6 94 0.5 NE 7 7 4 4 - - 3.8
22/06:10am 15.5 15.7 14.6 94 0.5 NE 7 7 4 4 - - 3.8
22/06:00am 15.6 16.3 14.6 94 0.6 NE 4 7 2 4 - - 3.8
22/05:50am 15.6 16.3 14.6 94 0.6 NE 4 6 2 3 - - 3.8
22/05:40am 15.6 16.3 14.6 94 0.6 NE 4 6 2 3 - - 3.8
22/05:30am 15.6 16.4 14.8 95 0.5 ENE 4 4 2 2 - - 3.8
22/05:20am 15.7 17.0 15.1 96 0.4 ENE 2 4 1 2 - - 3.8
22/05:10am 15.7 17.4 15.1 96 0.4 CALM 0 0 0 0 - - 3.8
22/05:00am 15.8 17.5 15.1 96 0.4 CALM 0 2 0 1 - - 3.8
22/04:50am 15.8 17.4 14.9 94 0.5 CALM 0 4 0 2 - - 3.8
22/04:40am 15.8 16.6 14.8 94 0.6 NE 4 6 2 3 - - 3.8
22/04:30am 15.8 16.1 14.6 93 0.7 NE 6 7 3 4 - - 3.8
22/04:20am 15.7 16.1 14.8 94 0.5 ENE 6 7 3 4 - - 3.8
22/04:10am 15.7 17.0 15.2 97 0.3 NE 2 4 1 2 - - 3.8
22/04:00am 15.8 17.2 15.3 97 0.3 N 2 2 1 1 - - 3.8
22/03:50am 15.8 17.5 15.3 97 0.3 CALM 0 0 0 0 - - 3.8
22/03:40am 15.8 17.5 15.3 97 0.3 CALM 0 0 0 0 - - 3.8
22/03:30am 15.8 17.5 15.3 97 0.3 CALM 0 0 0 0 - - 3.8
22/03:20am 15.9 17.6 15.3 96 0.4 CALM 0 0 0 0 - - 3.8
22/03:10am 15.9 17.3 15.3 96 0.4 NNW 2 4 1 2 - - 3.8
22/03:00am 15.9 17.2 15.2 96 0.4 NNE 2 4 1 2 - - 3.8
22/02:50am 16.0 17.4 15.3 96 0.4 N 2 4 1 2 - - 3.8
22/02:40am 16.0 17.0 15.3 96 0.4 NNE 4 4 2 2 - - 3.8
22/02:30am 16.0 17.0 15.3 96 0.4 NNE 4 6 2 3 - - 3.8
22/02:20am 16.3 17.8 15.6 96 0.4 NNE 2 4 1 2 - - 3.8
22/02:10am 16.4 17.5 15.5 94 0.5 NE 4 6 2 3 - - 3.8
22/02:00am 16.5 17.2 15.5 94 0.6 NNE 6 7 3 4 - - 3.8
22/01:50am 16.5 17.6 15.5 94 0.6 NNE 4 6 2 3 - - 3.8
22/01:40am 16.4 17.8 15.3 93 0.7 NE 2 4 1 2 - - 3.8
22/01:30am 16.4 18.1 15.1 92 0.8 CALM 0 4 0 2 - - 3.8
22/01:20am 16.4 18.1 15.2 93 0.7 CALM 0 2 0 1 - - 3.8
22/01:10am 16.5 18.2 15.2 92 0.8 CALM 0 0 0 0 - - 3.8
22/01:00am 16.5 17.8 15.1 91 0.8 SSW 2 4 1 2 - - 3.8
22/12:50am 16.6 18.3 15.3 92 0.8 CALM 0 2 0 1 - - 3.8
22/12:40am 16.7 18.1 15.3 91 0.8 NNW 2 4 1 2 - - 3.8
22/12:30am 16.8 18.6 15.4 91 0.8 CALM 0 2 0 1 - - 3.8
22/12:20am 16.7 18.4 15.1 90 1.0 CALM 0 0 0 0 - - 3.8
22/12:10am 16.7 18.0 15.1 90 1.0 NNW 2 2 1 1 - - 3.8
22/12:00am 16.7 17.6 15.0 90 1.0 N 4 4 2 2 - - 3.8
 
Date/Time
EDT
Temp
°C
App
Temp
°C
Dew
Point
°C
Rel
Hum
%
Delta-T
°C
Wind Press
QNH
hPa
Press
MSL
hPa
Rain since
9am
mm
Dir  Spd
km/h
Gust
km/h
Spd
kts
Gust
kts
21/11:50pm 16.5 17.3 14.9 90 1.0 NE 4 6 2 3 - - 3.8
21/11:40pm 16.3 18.0 15.3 94 0.6 CALM 0 0 0 0 - - 3.8
21/11:30pm 16.2 17.4 15.0 93 0.7 S 2 4 1 2 - - 3.8
21/11:20pm 16.3 17.2 15.1 93 0.7 S 4 4 2 2 - - 3.8
21/11:10pm 16.7 18.0 15.2 91 0.9 S 2 4 1 2 - - 3.8
21/11:00pm 17.0 17.4 14.7 86 1.4 E 6 6 3 3 - - 3.8
21/10:50pm 16.9 17.2 14.6 86 1.4 E 6 7 3 4 - - 3.8
21/10:40pm 16.8 17.6 14.8 88 1.2 SSE 4 6 2 3 - - 3.8
21/10:30pm 16.7 17.8 14.7 88 1.2 SSW 2 2 1 1 - - 3.8
21/10:20pm 16.4 17.2 14.8 90 1.0 SE 4 6 2 3 - - 3.8
21/10:10pm 16.3 16.6 15.0 92 0.8 SSE 7 9 4 5 - - 3.8
21/10:00pm 16.4 17.3 15.0 91 0.8 SSE 4 6 2 3 - - 3.8
21/09:50pm 16.7 17.6 15.1 90 1.0 SSW 4 7 2 4 - - 3.8
21/09:40pm 17.2 17.7 14.9 86 1.4 E 6 9 3 5 - - 3.8
21/09:30pm 16.6 16.8 14.6 88 1.2 ESE 7 9 4 5 - - 3.8
21/09:20pm 16.3 15.4 13.8 85 1.5 ESE 11 13 6 7 - - 3.8
21/09:10pm 16.1 15.6 13.9 87 1.3 ESE 9 13 5 7 - - 3.8
21/09:00pm 16.3 17.0 14.5 89 1.1 SSE 4 6 2 3 - - 3.8
21/08:50pm 16.3 16.4 14.5 89 1.1 SSE 7 9 4 5 - - 3.8
21/08:40pm 16.5 16.9 15.4 93 0.7 SSE 7 9 4 5 - - 3.8
21/08:30pm 17.1 17.2 15.4 90 1.0 SE 9 17 5 9 - - 3.8
21/08:20pm 17.0 15.6 14.4 85 1.5 ESE 15 19 8 10 - - 3.6
21/08:00pm 17.1 17.8 16.1 94 0.6 SE 7 9 4 5 - - 3.2
21/07:50pm 17.5 18.3 16.3 93 0.7 SSE 7 11 4 6 - - 1.4
21/07:40pm 18.1 19.0 16.1 88 1.2 SW 6 7 3 4 - - 0.6
21/07:30pm 18.6 20.1 15.7 83 1.8 W 2 4 1 2 - - 0.0
21/07:20pm 18.8 20.0 15.8 83 1.8 NNE 4 7 2 4 - - 0.0
21/07:10pm 19.3 19.1 15.8 80 2.2 NNE 11 15 6 8 - - 0.0
21/07:00pm 19.7 19.6 14.9 74 2.9 ENE 9 11 5 6 - - 0.0
21/06:50pm 19.9 19.2 14.4 70 3.3 E 11 13 6 7 - - 0.0
21/06:40pm 19.9 19.5 14.2 69 3.4 ESE 9 11 5 6 - - 0.0
21/06:30pm 19.9 19.1 14.1 69 3.5 S 11 15 6 8 - - 0.0
21/06:20pm 19.7 18.9 14.1 70 3.4 S 11 15 6 8 - - 0.0
21/06:10pm 19.8 19.2 14.7 72 3.1 S 11 13 6 7 - - 0.0
21/06:00pm 20.0 18.9 14.3 69 3.4 S 13 13 7 7 - - 0.0
21/05:50pm 20.3 20.3 14.1 67 3.7 S 7 9 4 5 - - 0.0
21/05:40pm 20.3 19.7 13.4 64 4.1 S 9 11 5 6 - - 0.0
21/05:30pm 20.0 19.4 13.5 66 3.9 S 9 11 5 6 - - 0.0
21/05:20pm 20.1 20.6 14.0 68 3.7 SSW 4 7 2 4 - - 0.0
21/05:10pm 20.0 20.5 13.9 68 3.7 SSW 4 7 2 4 - - 0.0
21/05:00pm 20.3 20.6 14.4 69 3.6 SW 6 7 3 4 - - 0.0
21/04:50pm 20.7 20.7 13.5 63 4.3 S 6 6 3 3 - - 0.0
21/04:40pm 20.6 20.0 13.4 63 4.3 S 9 11 5 6 - - 0.0
21/04:30pm 20.5 19.5 13.4 63 4.2 S 11 11 6 6 - - 0.0
21/04:20pm 20.4 19.1 13.6 65 4.1 S 13 15 7 8 - - 0.0
21/04:10pm 20.4 19.8 13.4 64 4.2 S 9 13 5 7 - - 0.0
21/04:00pm 20.3 18.8 13.2 63 4.2 S 13 15 7 8 - - 0.0
21/03:50pm 20.2 19.1 13.1 63 4.2 S 11 17 6 9 - - 0.0
21/03:40pm 20.3 18.2 13.7 66 3.9 SSW 17 20 9 11 - - 0.0
21/03:30pm 21.3 21.6 15.0 67 3.9 SSW 7 17 4 9 - - 0.0
21/03:20pm 22.0 22.9 15.0 64 4.3 SW 4 9 2 5 - - 0.0
21/03:10pm 23.4 24.0 14.3 56 5.6 WNW 4 7 2 4 - - 0.0
21/03:00pm 24.0 24.1 13.8 53 6.2 NNW 6 11 3 6 - - 0.0
21/02:50pm 25.2 24.9 14.4 51 6.7 NNW 9 17 5 9 - - 0.0
21/02:40pm 26.6 25.8 14.0 46 7.8 NNW 11 15 6 8 - - 0.0
21/02:30pm 24.6 23.8 14.1 52 6.4 N 11 15 6 8 - - 0.0
21/02:20pm 24.8 23.9 13.6 49 6.8 N 11 15 6 8 - - 0.0
21/02:10pm 24.5 24.0 15.0 55 5.9 NNW 11 15 6 8 - - 0.0
21/02:00pm 24.6 24.3 14.4 53 6.3 NNW 9 13 5 7 - - 0.0
21/01:50pm 24.8 23.4 14.4 52 6.4 N 15 22 8 12 - - 0.0

Other formats

Comma delimited format used in spreadsheet applications
http://www.bom.gov.au/fwo/IDN60801/IDN60801.99762.axf

JavaScript Object Notation format (JSON) in row-major order
http://www.bom.gov.au/fwo/IDN60801/IDN60801.99762.json

Data quality

Most of these data are generated automatically and are frequently updated. Quality checks on data are not normally performed. It is possible for incorrect values to appear. Refer to information at About Latest Weather Observations and please check the disclaimer before using these data.